Time;durP1;ratioP1;P1;durP2;ratioP2;P2;SDS_P1;SDS_P2;PMS_P1;PMS_P2;Temp;Humidity;BMP_temperature;BMP_pressure;BME280_temperature;BME280_humidity;BME280_pressure;Samples;Min_cycle;Max_cycle;Signal;HPM_P1;HPM_P2
2021/05/23 00:01:21;;;;;;;1.40;1.17;;;;;;;;;;5034694;28;20240;-59
2021/05/23 00:03:48;;;;;;;2.10;1.27;;;;;;;;;;5029718;28;20219;-59
2021/05/23 00:06:18;;;;;;;1.70;1.40;;;;;;;;;;5018538;28;20229;-59
2021/05/23 00:08:44;;;;;;;1.10;1.00;;;;;;;;;;5028061;28;20312;-56
2021/05/23 00:11:10;;;;;;;1.70;1.20;;;;;;;;;;5038259;28;20218;-59
2021/05/23 00:13:47;;;;;;;1.20;1.10;;;;;;;;;;5034662;28;20705;-59
2021/05/23 00:16:20;;;;;;;1.27;1.17;;;;;;;;;;5022896;28;20201;-57
2021/05/23 00:18:53;;;;;;;1.30;1.00;;;;;;;;;;5031693;28;20193;-59
2021/05/23 00:21:21;;;;;;;1.00;0.90;;;;;;;;;;5039415;28;20214;-57
2021/05/23 00:23:46;;;;;;;1.03;0.93;;;;;;;;;;5026456;28;20608;-59
2021/05/23 00:26:12;;;;;;;1.20;1.10;;;;;;;;;;5024197;28;20201;-59
2021/05/23 00:28:40;;;;;;;1.00;0.90;;;;;;;;;;4996823;28;20201;-59
2021/05/23 00:31:08;;;;;;;1.13;1.03;;;;;;;;;;5032901;28;20265;-57
2021/05/23 00:33:34;;;;;;;1.00;0.87;;;;;;;;;;5025601;28;20254;-58
2021/05/23 00:35:59;;;;;;;0.97;0.90;;;;;;;;;;5029069;28;20282;-58
2021/05/23 00:38:31;;;;;;;0.83;0.83;;;;;;;;;;5040249;28;20206;-58
2021/05/23 00:40:57;;;;;;;1.40;0.80;;;;;;;;;;5013331;28;20205;-58
2021/05/23 00:43:23;;;;;;;1.10;0.90;;;;;;;;;;5026685;28;20209;-59
2021/05/23 00:45:49;;;;;;;0.87;0.87;;;;;;;;;;5029295;28;20539;-58
2021/05/23 00:48:18;;;;;;;0.70;0.70;;;;;;;;;;5033977;28;20646;-57
2021/05/23 00:50:44;;;;;;;0.90;0.90;;;;;;;;;;5027272;28;20267;-57
2021/05/23 00:53:12;;;;;;;1.90;0.87;;;;;;;;;;5026940;28;20230;-58
2021/05/23 00:55:38;;;;;;;1.33;0.77;;;;;;;;;;5026284;28;20248;-58
2021/05/23 00:58:06;;;;;;;0.77;0.77;;;;;;;;;;5029088;28;20602;-58
2021/05/23 01:00:46;;;;;;;1.07;0.87;;;;;;;;;;5025858;28;20657;-56
2021/05/23 01:03:29;;;;;;;1.27;0.97;;;;;;;;;;5033112;28;20249;-58
2021/05/23 01:06:05;;;;;;;0.70;0.67;;;;;;;;;;5020792;28;20198;-59
2021/05/23 01:08:37;;;;;;;1.60;0.80;;;;;;;;;;4999188;28;20279;-56
2021/05/23 01:11:27;;;;;;;1.83;1.00;;;;;;;;;;5033976;28;20213;-57
2021/05/23 01:14:01;;;;;;;0.70;0.70;;;;;;;;;;4991755;28;20234;-56
2021/05/23 01:16:32;;;;;;;1.00;0.80;;;;;;;;;;5018954;28;20202;-56
2021/05/23 01:19:16;;;;;;;2.40;0.70;;;;;;;;;;5020588;28;20187;-57
2021/05/23 01:21:45;;;;;;;2.20;0.83;;;;;;;;;;5029940;28;20843;-59
2021/05/23 01:24:20;;;;;;;0.80;0.80;;;;;;;;;;5030532;28;20260;-56
2021/05/23 01:26:52;;;;;;;1.50;0.90;;;;;;;;;;5031279;28;20692;-56
2021/05/23 01:29:25;;;;;;;1.37;0.90;;;;;;;;;;5024742;28;20193;-58
2021/05/23 01:31:56;;;;;;;1.83;0.90;;;;;;;;;;5018583;28;20302;-59
2021/05/23 01:34:23;;;;;;;1.73;0.80;;;;;;;;;;4992964;28;20224;-59
2021/05/23 01:36:51;;;;;;;1.53;0.90;;;;;;;;;;5029745;28;20186;-58
2021/05/23 01:39:21;;;;;;;1.10;0.80;;;;;;;;;;5029869;28;20198;-58
2021/05/23 01:41:53;;;;;;;1.60;0.93;;;;;;;;;;5030262;28;20277;-57
2021/05/23 01:44:22;;;;;;;2.97;1.13;;;;;;;;;;5034152;28;20596;-61
2021/05/23 01:46:49;;;;;;;2.03;1.00;;;;;;;;;;5027609;28;20194;-57
2021/05/23 01:49:15;;;;;;;1.53;0.93;;;;;;;;;;5026962;28;20257;-58
2021/05/23 01:51:45;;;;;;;1.93;1.00;;;;;;;;;;5018831;28;20684;-59
2021/05/23 01:54:10;;;;;;;2.17;1.00;;;;;;;;;;5009233;28;20194;-56
2021/05/23 01:56:38;;;;;;;2.70;0.87;;;;;;;;;;5008059;28;20196;-58
2021/05/23 01:59:05;;;;;;;1.17;1.07;;;;;;;;;;5031223;28;20237;-58
2021/05/23 02:01:35;;;;;;;1.13;0.53;;;;;;;;;;5027548;28;20224;-62
2021/05/23 02:04:05;;;;;;;1.77;1.10;;;;;;;;;;4998651;28;20363;-56
2021/05/23 02:06:33;;;;;;;3.03;1.07;;;;;;;;;;5008444;28;20217;-58
2021/05/23 02:09:01;;;;;;;1.10;1.00;;;;;;;;;;5025780;28;20251;-56
2021/05/23 02:11:28;;;;;;;2.30;0.90;;;;;;;;;;5033664;28;20206;-56
2021/05/23 02:13:56;;;;;;;1.00;0.90;;;;;;;;;;5016388;28;20577;-57
2021/05/23 02:16:26;;;;;;;1.50;0.90;;;;;;;;;;5028514;28;20239;-57
2021/05/23 02:18:52;;;;;;;3.03;0.83;;;;;;;;;;5027664;28;20565;-58
2021/05/23 02:21:17;;;;;;;1.00;0.73;;;;;;;;;;5035243;28;20210;-60
2021/05/23 02:23:53;;;;;;;1.13;0.90;;;;;;;;;;5037529;28;20224;-59
2021/05/23 02:26:19;;;;;;;2.37;1.10;;;;;;;;;;5036206;28;20190;-58
2021/05/23 02:28:44;;;;;;;1.73;0.70;;;;;;;;;;5039431;28;20837;-60
2021/05/23 02:31:12;;;;;;;2.43;1.03;;;;;;;;;;5031150;28;20211;-57
2021/05/23 02:33:39;;;;;;;1.53;0.97;;;;;;;;;;5032683;28;20194;-59
2021/05/23 02:36:05;;;;;;;1.53;1.00;;;;;;;;;;5030091;28;20577;-58
2021/05/23 02:38:34;;;;;;;1.30;1.20;;;;;;;;;;5036469;28;20182;-57
2021/05/23 02:41:01;;;;;;;1.37;0.90;;;;;;;;;;5032270;28;20218;-57
2021/05/23 02:43:29;;;;;;;3.00;1.07;;;;;;;;;;5033080;28;20197;-59
2021/05/23 02:45:54;;;;;;;4.13;1.13;;;;;;;;;;5032013;28;20608;-61
2021/05/23 02:48:20;;;;;;;2.27;1.20;;;;;;;;;;5017837;28;20182;-60
2021/05/23 02:50:50;;;;;;;2.60;1.10;;;;;;;;;;5038150;28;20309;-56
2021/05/23 02:53:15;;;;;;;4.63;1.20;;;;;;;;;;5030420;28;20221;-55
2021/05/23 02:55:46;;;;;;;3.77;1.00;;;;;;;;;;5018370;28;20781;-56
2021/05/23 02:58:14;;;;;;;2.57;1.10;;;;;;;;;;5027366;28;20200;-58
2021/05/23 03:00:40;;;;;;;2.97;1.10;;;;;;;;;;5028856;28;20233;-59
2021/05/23 03:03:09;;;;;;;2.73;1.10;;;;;;;;;;5032178;28;20189;-57
2021/05/23 03:05:35;;;;;;;4.67;1.40;;;;;;;;;;5017735;28;20192;-60
2021/05/23 03:08:01;;;;;;;2.70;0.97;;;;;;;;;;5013965;28;20189;-59
2021/05/23 03:10:36;;;;;;;2.47;1.17;;;;;;;;;;5037329;28;20218;-58
2021/05/23 03:13:04;;;;;;;3.00;1.30;;;;;;;;;;5035752;28;20194;-57
2021/05/23 03:15:32;;;;;;;3.07;1.20;;;;;;;;;;5036308;28;20642;-57
2021/05/23 03:18:02;;;;;;;4.70;1.20;;;;;;;;;;5033747;28;20228;-60
2021/05/23 03:20:29;;;;;;;4.53;1.30;;;;;;;;;;5033664;28;20272;-59
2021/05/23 03:22:58;;;;;;;1.50;0.80;;;;;;;;;;5039389;28;20204;-60
2021/05/23 03:25:26;;;;;;;2.70;1.20;;;;;;;;;;5035882;28;20824;-58
2021/05/23 03:27:54;;;;;;;4.03;1.20;;;;;;;;;;5037090;28;20239;-56
2021/05/23 03:30:30;;;;;;;2.00;1.13;;;;;;;;;;5030638;28;20210;-58
2021/05/23 03:32:55;;;;;;;3.63;1.00;;;;;;;;;;5033730;28;20236;-59
2021/05/23 03:35:21;;;;;;;1.53;1.10;;;;;;;;;;5033400;28;20806;-58
2021/05/23 03:37:49;;;;;;;2.20;1.27;;;;;;;;;;5026719;28;20236;-59
2021/05/23 03:40:18;;;;;;;1.47;1.17;;;;;;;;;;5027046;28;20206;-58
2021/05/23 03:42:45;;;;;;;1.90;1.30;;;;;;;;;;5010955;28;20187;-60
2021/05/23 03:45:12;;;;;;;4.23;1.70;;;;;;;;;;4994508;28;20257;-56
2021/05/23 03:47:37;;;;;;;3.60;1.20;;;;;;;;;;5025265;28;20202;-58
2021/05/23 03:50:09;;;;;;;2.07;1.20;;;;;;;;;;5026721;28;20206;-59
2021/05/23 03:52:34;;;;;;;4.37;1.50;;;;;;;;;;5012440;28;20697;-59
2021/05/23 03:55:06;;;;;;;2.50;1.03;;;;;;;;;;5023783;28;20191;-57
2021/05/23 03:57:31;;;;;;;2.10;1.23;;;;;;;;;;5020092;28;20286;-59
2021/05/23 04:00:01;;;;;;;3.00;1.53;;;;;;;;;;5028054;28;20293;-60
2021/05/23 04:02:29;;;;;;;2.87;1.10;;;;;;;;;;5004714;28;20301;-58
2021/05/23 04:04:57;;;;;;;3.23;1.67;;;;;;;;;;5025040;28;20260;-57
2021/05/23 04:07:27;;;;;;;6.03;1.40;;;;;;;;;;5008713;28;20199;-59
2021/05/23 04:09:56;;;;;;;1.83;1.27;;;;;;;;;;5038648;28;20221;-59
2021/05/23 04:12:29;;;;;;;1.53;1.43;;;;;;;;;;5007057;28;20217;-57
2021/05/23 04:14:57;;;;;;;3.77;1.80;;;;;;;;;;5022196;28;20236;-58
2021/05/23 04:17:23;;;;;;;2.93;1.73;;;;;;;;;;5026032;28;20246;-60
2021/05/23 04:19:53;;;;;;;3.70;1.50;;;;;;;;;;5028605;28;20694;-56
2021/05/23 04:22:23;;;;;;;3.30;1.80;;;;;;;;;;4999824;28;20673;-57
2021/05/23 04:24:50;;;;;;;3.33;1.63;;;;;;;;;;5021692;28;20674;-58
2021/05/23 04:27:16;;;;;;;2.67;1.50;;;;;;;;;;5019044;28;20197;-57
2021/05/23 04:29:46;;;;;;;3.93;1.80;;;;;;;;;;4998242;28;20270;-59
2021/05/23 04:32:12;;;;;;;8.20;2.17;;;;;;;;;;5005920;28;20209;-57
2021/05/23 04:34:37;;;;;;;2.93;1.77;;;;;;;;;;5021696;28;20192;-57
2021/05/23 04:37:04;;;;;;;3.47;1.90;;;;;;;;;;5018660;28;20195;-57
2021/05/23 04:39:31;;;;;;;3.90;1.90;;;;;;;;;;5029708;28;20202;-56
2021/05/23 04:41:59;;;;;;;3.33;1.97;;;;;;;;;;5021128;28;20201;-58
2021/05/23 04:44:24;;;;;;;3.93;2.20;;;;;;;;;;5025964;28;20187;-57
2021/05/23 04:46:52;;;;;;;4.63;2.20;;;;;;;;;;5027208;28;20191;-58
2021/05/23 04:49:19;;;;;;;5.67;2.53;;;;;;;;;;5024487;28;20197;-56
2021/05/23 04:51:50;;;;;;;4.57;2.30;;;;;;;;;;5024131;28;20212;-56
2021/05/23 04:54:15;;;;;;;2.47;1.90;;;;;;;;;;5011089;28;20217;-57
2021/05/23 04:56:41;;;;;;;4.43;2.10;;;;;;;;;;5010529;28;20194;-57
2021/05/23 04:59:08;;;;;;;5.23;2.30;;;;;;;;;;5025179;28;20198;-58
2021/05/23 05:01:36;;;;;;;3.57;2.10;;;;;;;;;;5024601;28;20218;-56
2021/05/23 05:04:05;;;;;;;4.30;2.50;;;;;;;;;;5023165;28;20217;-57
2021/05/23 05:06:32;;;;;;;5.83;2.93;;;;;;;;;;5007291;28;20182;-59
2021/05/23 05:09:00;;;;;;;3.40;2.53;;;;;;;;;;5025632;28;20595;-59
2021/05/23 05:11:27;;;;;;;5.23;2.60;;;;;;;;;;5023990;28;20240;-57
2021/05/23 05:13:53;;;;;;;4.93;2.27;;;;;;;;;;5021830;28;20301;-60
2021/05/23 05:16:18;;;;;;;2.77;2.03;;;;;;;;;;5026601;28;20281;-56
2021/05/23 05:18:45;;;;;;;2.97;2.00;;;;;;;;;;5001333;28;20198;-56
2021/05/23 05:21:13;;;;;;;3.37;2.00;;;;;;;;;;5023259;28;20344;-59
2021/05/23 05:23:40;;;;;;;4.17;2.30;;;;;;;;;;5021207;28;20248;-60
2021/05/23 05:26:09;;;;;;;2.63;1.77;;;;;;;;;;5015487;28;20187;-58
2021/05/23 05:28:39;;;;;;;1.90;1.80;;;;;;;;;;5026802;28;20191;-59
2021/05/23 05:31:09;;;;;;;2.27;1.70;;;;;;;;;;5026612;28;20249;-59
2021/05/23 05:33:34;;;;;;;2.73;1.17;;;;;;;;;;5005763;28;20673;-56
2021/05/23 05:35:59;;;;;;;1.40;1.07;;;;;;;;;;5023712;28;20190;-57
2021/05/23 05:38:29;;;;;;;1.17;1.00;;;;;;;;;;5006860;28;21735;-57
2021/05/23 05:40:59;;;;;;;2.53;1.00;;;;;;;;;;5016849;28;20218;-58
2021/05/23 05:43:27;;;;;;;1.80;1.40;;;;;;;;;;5021590;28;20276;-58
2021/05/23 05:45:54;;;;;;;4.50;1.57;;;;;;;;;;5026179;28;20222;-56
2021/05/23 05:48:22;;;;;;;2.23;1.30;;;;;;;;;;5025548;28;20581;-58
2021/05/23 05:50:51;;;;;;;3.90;1.40;;;;;;;;;;5015722;28;20214;-58
2021/05/23 05:53:17;;;;;;;1.20;1.10;;;;;;;;;;5005600;28;20205;-57
2021/05/23 05:55:44;;;;;;;1.97;1.30;;;;;;;;;;5029179;28;20190;-59
2021/05/23 05:58:12;;;;;;;1.97;1.33;;;;;;;;;;5028589;28;20190;-60
2021/05/23 06:00:39;;;;;;;3.00;1.30;;;;;;;;;;5019280;28;20209;-57
2021/05/23 06:03:05;;;;;;;6.10;1.37;;;;;;;;;;5001813;28;20199;-57
2021/05/23 06:05:32;;;;;;;3.23;1.37;;;;;;;;;;5020666;28;20193;-59
2021/05/23 06:08:03;;;;;;;1.70;1.30;;;;;;;;;;4999699;28;20670;-59
2021/05/23 06:10:30;;;;;;;1.67;1.30;;;;;;;;;;5019306;28;20256;-58
2021/05/23 06:13:00;;;;;;;3.43;1.40;;;;;;;;;;5029533;28;20588;-58
2021/05/23 06:15:28;;;;;;;4.53;2.20;;;;;;;;;;5029191;28;20831;-59
2021/05/23 06:17:56;;;;;;;3.50;1.50;;;;;;;;;;5032098;28;20270;-57
2021/05/23 06:20:23;;;;;;;2.97;1.67;;;;;;;;;;5028870;28;20210;-57
2021/05/23 06:22:51;;;;;;;3.73;1.47;;;;;;;;;;5029839;28;20248;-59
2021/05/23 06:25:21;;;;;;;1.50;1.23;;;;;;;;;;5028126;28;20281;-57
2021/05/23 06:27:48;;;;;;;3.03;1.87;;;;;;;;;;5018415;28;20186;-58
2021/05/23 06:30:14;;;;;;;2.83;1.80;;;;;;;;;;5028329;28;20229;-59
2021/05/23 06:32:41;;;;;;;1.70;1.30;;;;;;;;;;5020808;28;20685;-57
2021/05/23 06:35:10;;;;;;;2.43;1.60;;;;;;;;;;5020713;28;20218;-57
2021/05/23 06:37:35;;;;;;;3.83;1.77;;;;;;;;;;5020314;28;20176;-57
2021/05/23 06:40:03;;;;;;;4.03;1.90;;;;;;;;;;5009034;28;20229;-56
2021/05/23 06:42:35;;;;;;;2.97;1.90;;;;;;;;;;5024529;28;20202;-60
2021/05/23 06:45:01;;;;;;;1.97;1.30;;;;;;;;;;5025691;28;20808;-58
2021/05/23 06:47:26;;;;;;;4.50;1.30;;;;;;;;;;5026462;28;20191;-58
2021/05/23 06:49:51;;;;;;;3.37;1.60;;;;;;;;;;5024951;28;20652;-59
2021/05/23 06:52:19;;;;;;;6.50;1.50;;;;;;;;;;5031034;28;20293;-56
2021/05/23 06:54:46;;;;;;;2.63;1.50;;;;;;;;;;5021632;28;20194;-58
2021/05/23 06:57:14;;;;;;;3.47;1.57;;;;;;;;;;5026426;28;20536;-58
2021/05/23 06:59:39;;;;;;;2.73;1.50;;;;;;;;;;5027065;28;20293;-57
2021/05/23 07:02:04;;;;;;;1.70;1.40;;;;;;;;;;5023771;28;20840;-57
2021/05/23 07:04:32;;;;;;;2.60;2.23;;;;;;;;;;5014086;28;20203;-58
2021/05/23 07:06:59;;;;;;;3.93;1.40;;;;;;;;;;5019321;28;20559;-58
2021/05/23 07:09:25;;;;;;;3.67;1.83;;;;;;;;;;5027293;28;20233;-59
2021/05/23 07:11:50;;;;;;;1.90;1.30;;;;;;;;;;5025979;28;20218;-60
2021/05/23 07:14:20;;;;;;;2.97;1.60;;;;;;;;;;5008778;28;20201;-60
2021/05/23 07:16:47;;;;;;;2.60;1.70;;;;;;;;;;5016780;28;20720;-60
2021/05/23 07:19:13;;;;;;;3.33;1.40;;;;;;;;;;5020726;28;20196;-59
2021/05/23 07:21:43;;;;;;;3.30;1.50;;;;;;;;;;5023534;28;20755;-56
2021/05/23 07:24:08;;;;;;;3.53;1.30;;;;;;;;;;5023931;28;20265;-58
2021/05/23 07:26:38;;;;;;;2.73;1.43;;;;;;;;;;5021181;28;20665;-59
2021/05/23 07:29:06;;;;;;;2.33;1.47;;;;;;;;;;5022439;28;20202;-58
2021/05/23 07:31:34;;;;;;;2.70;1.40;;;;;;;;;;5021221;28;20210;-59
2021/05/23 07:34:02;;;;;;;4.40;1.63;;;;;;;;;;5021582;28;20749;-58
2021/05/23 07:36:27;;;;;;;3.17;1.90;;;;;;;;;;5003188;28;20186;-59
2021/05/23 07:38:55;;;;;;;2.10;1.17;;;;;;;;;;5021510;28;20201;-61
2021/05/23 07:41:23;;;;;;;2.37;1.50;;;;;;;;;;5018902;28;20230;-60
2021/05/23 07:43:51;;;;;;;1.70;1.20;;;;;;;;;;5025506;28;20202;-60
2021/05/23 07:46:21;;;;;;;3.63;1.47;;;;;;;;;;5025468;28;20249;-60
2021/05/23 07:48:51;;;;;;;1.80;1.30;;;;;;;;;;5001564;28;20693;-59
2021/05/23 07:51:19;;;;;;;2.80;1.13;;;;;;;;;;5025183;28;20368;-59
2021/05/23 07:53:51;;;;;;;1.43;1.33;;;;;;;;;;5027644;28;20581;-59
2021/05/23 07:56:18;;;;;;;4.03;1.67;;;;;;;;;;5028073;28;20201;-60
2021/05/23 07:58:43;;;;;;;1.90;1.50;;;;;;;;;;5025922;28;20259;-60
2021/05/23 08:01:08;;;;;;;3.07;1.83;;;;;;;;;;5002700;28;20218;-60
2021/05/23 08:03:36;;;;;;;1.80;1.43;;;;;;;;;;5028430;28;20205;-59
2021/05/23 08:06:04;;;;;;;1.63;1.33;;;;;;;;;;5022976;28;20193;-61
2021/05/23 08:08:32;;;;;;;1.67;1.50;;;;;;;;;;5025971;28;20214;-63
2021/05/23 08:10:57;;;;;;;2.90;1.40;;;;;;;;;;5028754;28;20214;-62
2021/05/23 08:13:23;;;;;;;1.47;0.97;;;;;;;;;;5022394;28;20187;-63
2021/05/23 08:15:51;;;;;;;2.20;1.00;;;;;;;;;;5003393;28;20290;-63
2021/05/23 08:18:20;;;;;;;3.17;1.17;;;;;;;;;;5026862;28;20195;-62
2021/05/23 08:20:47;;;;;;;2.20;1.27;;;;;;;;;;5019822;28;20221;-60
2021/05/23 08:23:17;;;;;;;1.23;0.90;;;;;;;;;;5025106;28;20263;-60
2021/05/23 08:25:45;;;;;;;2.00;1.07;;;;;;;;;;5002733;28;20217;-58
2021/05/23 08:28:12;;;;;;;1.30;0.97;;;;;;;;;;5001710;28;20189;-61
2021/05/23 08:30:40;;;;;;;2.60;1.10;;;;;;;;;;4994055;28;20682;-60
2021/05/23 08:33:08;;;;;;;2.07;1.20;;;;;;;;;;5015218;28;20237;-60
2021/05/23 08:35:33;;;;;;;1.90;0.93;;;;;;;;;;5020763;28;20189;-59
2021/05/23 08:37:58;;;;;;;1.03;0.90;;;;;;;;;;5025230;28;20183;-60
2021/05/23 08:40:27;;;;;;;1.30;0.83;;;;;;;;;;5027466;28;20635;-62
2021/05/23 08:42:53;;;;;;;2.00;1.00;;;;;;;;;;5020078;28;20190;-63
2021/05/23 08:45:18;;;;;;;1.80;1.00;;;;;;;;;;5006696;28;20579;-63
2021/05/23 08:47:47;;;;;;;2.63;1.30;;;;;;;;;;5023382;28;20191;-62
2021/05/23 08:50:19;;;;;;;1.63;1.30;;;;;;;;;;5024226;28;20194;-61
2021/05/23 08:52:44;;;;;;;1.93;1.57;;;;;;;;;;5022767;28;20232;-61
2021/05/23 08:55:11;;;;;;;2.77;1.53;;;;;;;;;;5005398;28;20199;-61
2021/05/23 08:57:38;;;;;;;1.37;1.23;;;;;;;;;;4992877;28;20195;-63
2021/05/23 09:00:06;;;;;;;1.50;1.40;;;;;;;;;;5009168;28;20226;-61
2021/05/23 09:02:32;;;;;;;3.20;1.50;;;;;;;;;;5009682;28;20214;-60
2021/05/23 09:07:27;;;;;;;2.60;1.50;;;;;;;;;;4965698;28;20609;-61
2021/05/23 09:09:52;;;;;;;2.00;1.30;;;;;;;;;;4978446;28;20374;-61
2021/05/23 09:12:21;;;;;;;1.37;1.20;;;;;;;;;;4978974;28;20308;-65
2021/05/23 09:14:52;;;;;;;2.27;1.13;;;;;;;;;;4979316;28;20214;-62
2021/05/23 09:17:26;;;;;;;2.38;1.77;;;;;;;;;;4971076;28;20954;-65
2021/05/23 09:19:55;;;;;;;3.63;1.80;;;;;;;;;;4970225;28;20194;-61
2021/05/23 09:22:26;;;;;;;1.50;1.27;;;;;;;;;;4972677;28;20699;-61
2021/05/23 09:24:57;;;;;;;1.10;1.00;;;;;;;;;;4970175;28;20350;-62
2021/05/23 09:27:27;;;;;;;2.90;1.30;;;;;;;;;;4967889;28;20246;-63
2021/05/23 09:30:15;;;;;;;1.20;1.00;;;;;;;;;;4969663;28;20251;-58
2021/05/23 09:32:45;;;;;;;2.17;1.10;;;;;;;;;;4968260;28;20208;-63
2021/05/23 09:35:14;;;;;;;2.43;1.30;;;;;;;;;;4968729;28;20208;-61
2021/05/23 09:37:42;;;;;;;1.60;1.30;;;;;;;;;;4968520;28;20437;-65
2021/05/23 09:40:20;;;;;;;1.73;1.50;;;;;;;;;;4969088;28;20200;-61
2021/05/23 09:42:47;;;;;;;1.87;1.10;;;;;;;;;;4970736;28;20204;-60
2021/05/23 09:45:15;;;;;;;1.20;1.10;;;;;;;;;;4957177;28;20216;-61
2021/05/23 09:47:57;;;;;;;1.43;1.00;;;;;;;;;;4969422;28;20200;-60
2021/05/23 09:50:43;;;;;;;0.87;0.87;;;;;;;;;;4971395;28;20265;-60
2021/05/23 09:53:19;;;;;;;1.10;0.87;;;;;;;;;;4972314;28;20303;-59
2021/05/23 09:55:56;;;;;;;1.00;1.00;;;;;;;;;;4968313;28;20254;-64
2021/05/23 09:58:28;;;;;;;2.80;0.80;;;;;;;;;;4970953;28;20658;-64
2021/05/23 10:00:53;;;;;;;1.63;1.10;;;;;;;;;;4951609;28;20200;-61
2021/05/23 10:03:24;;;;;;;1.70;1.03;;;;;;;;;;4970987;28;20208;-65
2021/05/23 10:05:52;;;;;;;1.77;1.60;;;;;;;;;;4970225;28;20303;-59
2021/05/23 10:08:19;;;;;;;1.30;1.20;;;;;;;;;;4967089;28;20765;-59
2021/05/23 10:10:48;;;;;;;1.83;1.43;;;;;;;;;;4975217;28;20200;-64
2021/05/23 10:13:18;;;;;;;1.87;1.60;;;;;;;;;;4971555;28;20247;-59
2021/05/23 10:15:46;;;;;;;1.70;1.60;;;;;;;;;;4972070;28;20201;-64
2021/05/23 10:18:13;;;;;;;2.37;1.73;;;;;;;;;;4947741;28;20192;-62
2021/05/23 10:20:39;;;;;;;2.93;1.30;;;;;;;;;;4975187;28;20185;-61
2021/05/23 10:23:17;;;;;;;1.70;1.43;;;;;;;;;;4976442;28;20197;-67
2021/05/23 10:25:48;;;;;;;1.30;1.20;;;;;;;;;;4974773;28;20563;-63
2021/05/23 10:28:17;;;;;;;1.47;1.37;;;;;;;;;;4985191;28;20219;-63
2021/05/23 10:30:55;;;;;;;1.70;1.60;;;;;;;;;;4978872;28;20728;-65
2021/05/23 10:33:22;;;;;;;1.40;1.30;;;;;;;;;;4966302;28;20268;-57
2021/05/23 10:35:49;;;;;;;3.70;1.50;;;;;;;;;;4972584;28;20189;-60
2021/05/23 10:38:20;;;;;;;1.63;1.37;;;;;;;;;;4975824;28;20193;-58
2021/05/23 10:41:18;;;;;;;1.30;1.20;;;;;;;;;;4969804;28;20196;-58
2021/05/23 10:43:46;;;;;;;1.70;1.23;;;;;;;;;;4984877;28;20247;-59
2021/05/23 10:46:13;;;;;;;1.53;1.40;;;;;;;;;;4980476;28;20626;-61
2021/05/23 10:48:53;;;;;;;3.43;1.20;;;;;;;;;;4977198;28;20681;-59
2021/05/23 10:51:19;;;;;;;1.50;1.10;;;;;;;;;;4976137;28;20216;-59
2021/05/23 10:53:46;;;;;;;1.30;1.20;;;;;;;;;;4978231;28;20208;-64
2021/05/23 10:56:29;;;;;;;2.10;1.90;;;;;;;;;;4978232;28;20203;-60
2021/05/23 10:59:02;;;;;;;2.07;1.40;;;;;;;;;;4975365;28;20204;-61
2021/05/23 11:01:50;;;;;;;1.13;1.03;;;;;;;;;;4974357;28;20185;-62
2021/05/23 11:04:22;;;;;;;1.43;1.33;;;;;;;;;;4976393;28;20619;-64
2021/05/23 11:06:48;;;;;;;1.90;1.80;;;;;;;;;;4977600;28;20204;-63
2021/05/23 11:09:20;;;;;;;2.33;1.87;;;;;;;;;;4977149;28;20208;-60
2021/05/23 11:11:48;;;;;;;1.80;1.70;;;;;;;;;;4974699;28;20294;-62
2021/05/23 11:14:14;;;;;;;2.00;1.80;;;;;;;;;;4977778;28;20216;-61
2021/05/23 11:16:52;;;;;;;2.27;1.87;;;;;;;;;;4977614;28;20230;-59
2021/05/23 11:19:27;;;;;;;1.60;1.50;;;;;;;;;;4975725;28;20207;-60
2021/05/23 11:21:58;;;;;;;3.37;2.60;;;;;;;;;;4971598;28;20274;-61
2021/05/23 11:24:34;;;;;;;2.90;2.20;;;;;;;;;;4980646;28;20219;-59
2021/05/23 11:27:17;;;;;;;2.73;1.90;;;;;;;;;;4986153;28;20210;-61
2021/05/23 11:29:49;;;;;;;1.90;1.80;;;;;;;;;;4983027;28;20183;-62
2021/05/23 11:32:17;;;;;;;4.80;1.70;;;;;;;;;;4977380;28;20208;-61
2021/05/23 11:34:44;;;;;;;1.97;1.73;;;;;;;;;;4979836;28;20211;-62
2021/05/23 11:37:12;;;;;;;3.50;2.63;;;;;;;;;;4983998;28;20224;-61
2021/05/23 11:39:40;;;;;;;3.53;2.43;;;;;;;;;;4992848;28;20198;-61
2021/05/23 11:42:11;;;;;;;2.73;2.53;;;;;;;;;;4976023;28;20203;-63
2021/05/23 11:44:39;;;;;;;2.67;2.13;;;;;;;;;;4986256;28;20239;-60
2021/05/23 11:47:07;;;;;;;1.10;1.00;;;;;;;;;;4985875;28;20672;-62
2021/05/23 11:49:44;;;;;;;1.43;1.10;;;;;;;;;;4979586;28;20602;-62
2021/05/23 11:52:10;;;;;;;1.17;1.07;;;;;;;;;;4989271;28;20291;-61
2021/05/23 11:54:35;;;;;;;2.07;1.13;;;;;;;;;;4976473;28;20819;-61
2021/05/23 11:57:00;;;;;;;1.47;1.37;;;;;;;;;;4980403;28;20259;-60
2021/05/23 11:59:30;;;;;;;1.97;1.30;;;;;;;;;;4978152;28;20644;-60
2021/05/23 12:01:56;;;;;;;2.97;1.60;;;;;;;;;;4975544;28;20200;-62
2021/05/23 12:04:24;;;;;;;2.33;1.60;;;;;;;;;;4968882;28;20247;-62
2021/05/23 12:06:55;;;;;;;2.13;1.50;;;;;;;;;;4978977;28;20230;-61
2021/05/23 12:09:23;;;;;;;2.13;1.80;;;;;;;;;;4970719;28;20279;-62
2021/05/23 12:11:53;;;;;;;1.97;1.77;;;;;;;;;;4988738;28;20758;-61
2021/05/23 12:14:39;;;;;;;2.50;1.93;;;;;;;;;;4979547;28;20230;-64
2021/05/23 12:17:08;;;;;;;2.73;1.70;;;;;;;;;;4977985;28;20203;-60
2021/05/23 12:19:46;;;;;;;1.80;1.70;;;;;;;;;;4974600;28;20196;-60
2021/05/23 12:22:18;;;;;;;1.60;1.43;;;;;;;;;;4972025;28;20707;-60
2021/05/23 12:24:46;;;;;;;2.63;2.03;;;;;;;;;;4972812;28;20303;-62
2021/05/23 12:27:24;;;;;;;2.53;1.47;;;;;;;;;;4970652;28;20200;-61
2021/05/23 12:30:04;;;;;;;3.23;2.10;;;;;;;;;;4969335;28;20202;-63
2021/05/23 12:32:44;;;;;;;2.23;1.70;;;;;;;;;;4973175;28;20680;-66
2021/05/23 12:35:18;;;;;;;3.07;1.93;;;;;;;;;;4970653;28;20681;-65
2021/05/23 12:37:48;;;;;;;3.60;1.67;;;;;;;;;;4973021;28;20279;-64
2021/05/23 12:40:29;;;;;;;2.17;1.77;;;;;;;;;;4954121;28;20200;-65
2021/05/23 12:43:17;;;;;;;2.20;1.60;;;;;;;;;;4971661;28;20210;-62
2021/05/23 12:46:00;;;;;;;3.33;1.20;;;;;;;;;;4972341;28;20656;-60
2021/05/23 12:48:33;;;;;;;3.00;1.70;;;;;;;;;;4970964;28;20200;-61
2021/05/23 12:51:16;;;;;;;2.47;1.60;;;;;;;;;;4973474;28;20307;-61
2021/05/23 12:53:48;;;;;;;3.07;1.80;;;;;;;;;;4968970;28;21125;-60
2021/05/23 12:56:18;;;;;;;1.90;1.50;;;;;;;;;;4955733;28;20917;-62
2021/05/23 12:59:15;;;;;;;2.53;1.40;;;;;;;;;;4971925;28;20250;-59
2021/05/23 13:01:43;;;;;;;3.77;1.53;;;;;;;;;;4968261;28;20727;-65
2021/05/23 13:04:17;;;;;;;2.10;1.60;;;;;;;;;;4972776;28;20229;-68
2021/05/23 13:06:53;;;;;;;5.73;2.13;;;;;;;;;;4971030;28;20218;-66
2021/05/23 13:09:21;;;;;;;4.23;1.80;;;;;;;;;;4974104;28;20871;-65
2021/05/23 13:11:58;;;;;;;4.87;1.93;;;;;;;;;;4968392;28;20221;-64
2021/05/23 13:14:26;;;;;;;2.30;1.70;;;;;;;;;;4971883;28;20234;-59
2021/05/23 13:16:56;;;;;;;3.47;1.90;;;;;;;;;;4973100;28;20220;-64
2021/05/23 13:19:29;;;;;;;4.40;1.60;;;;;;;;;;4974244;28;20204;-64
2021/05/23 13:21:59;;;;;;;3.30;1.70;;;;;;;;;;4971426;28;20206;-65
2021/05/23 13:24:28;;;;;;;3.07;1.50;;;;;;;;;;4972558;28;20207;-62
2021/05/23 13:26:56;;;;;;;2.73;1.40;;;;;;;;;;4973625;28;20247;-59
2021/05/23 13:29:26;;;;;;;2.07;1.67;;;;;;;;;;4974403;28;20188;-67
2021/05/23 13:31:54;;;;;;;2.33;1.50;;;;;;;;;;4975898;28;20208;-61
2021/05/23 13:34:22;;;;;;;4.47;1.73;;;;;;;;;;4972514;28;20476;-60
2021/05/23 13:36:50;;;;;;;3.97;1.40;;;;;;;;;;4976353;28;20569;-61
2021/05/23 13:39:15;;;;;;;4.83;1.30;;;;;;;;;;4977158;28;20609;-64
2021/05/23 13:41:43;;;;;;;4.80;1.33;;;;;;;;;;4973554;28;20194;-63
2021/05/23 13:44:15;;;;;;;3.73;1.27;;;;;;;;;;4973166;28;20238;-63
2021/05/23 13:46:44;;;;;;;2.37;1.30;;;;;;;;;;4977663;28;20639;-64
2021/05/23 13:49:15;;;;;;;2.67;1.13;;;;;;;;;;4973140;28;20187;-61
2021/05/23 13:51:43;;;;;;;3.00;1.20;;;;;;;;;;4976851;28;20271;-63
2021/05/23 13:54:12;;;;;;;2.83;1.50;;;;;;;;;;4973123;28;20306;-61
2021/05/23 13:56:41;;;;;;;2.67;1.50;;;;;;;;;;4970784;28;20736;-61
2021/05/23 13:59:06;;;;;;;3.93;1.50;;;;;;;;;;4960814;28;20905;-63
2021/05/23 14:01:45;;;;;;;3.30;1.13;;;;;;;;;;4976496;28;20243;-60
2021/05/23 14:04:13;;;;;;;3.17;1.50;;;;;;;;;;4979489;28;20961;-61
2021/05/23 14:06:41;;;;;;;4.23;1.43;;;;;;;;;;4980832;28;20816;-63
2021/05/23 14:09:06;;;;;;;1.87;1.10;;;;;;;;;;4979740;28;20813;-60
2021/05/23 14:11:32;;;;;;;1.97;1.20;;;;;;;;;;4984243;28;20205;-58
2021/05/23 14:14:02;;;;;;;1.83;1.10;;;;;;;;;;4983691;28;20212;-63
2021/05/23 14:16:27;;;;;;;4.80;1.50;;;;;;;;;;4990516;28;20203;-59
2021/05/23 14:18:55;;;;;;;5.10;1.90;;;;;;;;;;4972269;28;20691;-56
2021/05/23 14:21:20;;;;;;;1.00;0.70;;;;;;;;;;4986723;28;20192;-58
2021/05/23 14:23:49;;;;;;;2.00;1.17;;;;;;;;;;4973938;28;20211;-58
2021/05/23 14:26:20;;;;;;;7.03;1.20;;;;;;;;;;4983997;28;20246;-61
2021/05/23 14:28:47;;;;;;;6.97;1.77;;;;;;;;;;4983520;28;20192;-61
2021/05/23 14:31:17;;;;;;;4.67;1.33;;;;;;;;;;4989665;28;20208;-59
2021/05/23 14:33:50;;;;;;;3.23;1.33;;;;;;;;;;4985898;28;20285;-60
2021/05/23 14:36:20;;;;;;;2.10;1.20;;;;;;;;;;4970255;28;20212;-61
2021/05/23 14:38:48;;;;;;;3.07;1.00;;;;;;;;;;4961806;28;20203;-61
2021/05/23 14:41:15;;;;;;;3.47;1.13;;;;;;;;;;4980583;28;20199;-60
2021/05/23 14:43:46;;;;;;;1.67;1.10;;;;;;;;;;4972753;28;20204;-61
2021/05/23 14:46:11;;;;;;;3.87;1.23;;;;;;;;;;4986291;28;20192;-62
2021/05/23 14:48:39;;;;;;;2.47;1.20;;;;;;;;;;4987868;28;20592;-62
2021/05/23 14:51:07;;;;;;;2.33;0.70;;;;;;;;;;4984098;28;20219;-64
2021/05/23 14:53:35;;;;;;;2.27;1.30;;;;;;;;;;4978999;28;21270;-62
2021/05/23 14:56:02;;;;;;;1.50;1.00;;;;;;;;;;4975893;28;20191;-66
2021/05/23 14:58:32;;;;;;;4.10;1.00;;;;;;;;;;4974124;28;21025;-63